createdAt,value
2018-03-21T00:00:45.435Z,3.37
2018-03-21T00:03:12.985Z,2.90
2018-03-21T00:05:41.286Z,2.97
2018-03-21T00:08:08.795Z,3.27
2018-03-21T00:10:36.314Z,2.90
2018-03-21T00:13:03.837Z,2.80
2018-03-21T00:15:32.104Z,3.30
2018-03-21T00:18:00.393Z,2.87
2018-03-21T00:20:28.668Z,2.50
2018-03-21T00:22:57.082Z,2.77
2018-03-21T00:25:24.637Z,2.90
2018-03-21T00:27:52.305Z,2.33
2018-03-21T00:30:19.827Z,2.47
2018-03-21T00:32:48.105Z,2.90
2018-03-21T00:35:16.481Z,2.77
2018-03-21T00:37:44.793Z,2.57
2018-03-21T00:40:12.661Z,2.40
2018-03-21T00:42:40.174Z,2.50
2018-03-21T00:45:08.508Z,2.33
2018-03-21T00:47:36.102Z,2.73
2018-03-21T00:50:06.430Z,2.80
2018-03-21T00:52:34.047Z,2.00
2018-03-21T00:55:01.717Z,2.60
2018-03-21T00:57:29.577Z,2.70
2018-03-21T00:59:57.077Z,2.87
2018-03-21T01:02:24.700Z,3.20
2018-03-21T01:04:52.227Z,2.63
2018-03-21T01:07:20.593Z,2.40
2018-03-21T01:09:48.949Z,2.93
2018-03-21T01:12:16.543Z,2.80
2018-03-21T01:14:44.909Z,2.73
2018-03-21T01:17:13.186Z,2.67
2018-03-21T01:19:41.480Z,3.23
2018-03-21T01:22:09.759Z,3.00
2018-03-21T01:24:38.650Z,2.40
2018-03-21T01:27:06.944Z,3.30
2018-03-21T01:29:34.528Z,2.93
2018-03-21T01:32:02.066Z,3.07
2018-03-21T01:34:29.641Z,2.73
2018-03-21T01:36:57.441Z,2.63
2018-03-21T01:39:24.980Z,3.10
2018-03-21T01:41:53.288Z,3.10
2018-03-21T01:44:22.423Z,2.47
2018-03-21T01:46:49.984Z,3.17
2018-03-21T01:49:17.548Z,2.53
2018-03-21T01:51:45.105Z,3.00
2018-03-21T01:54:13.353Z,3.10
2018-03-21T01:56:42.126Z,3.10
2018-03-21T01:59:10.995Z,3.83
2018-03-21T02:01:39.192Z,3.50
2018-03-21T02:04:07.476Z,4.77
2018-03-21T02:06:35.792Z,6.83
2018-03-21T02:09:03.283Z,7.97
2018-03-21T02:11:30.803Z,8.80
2018-03-21T02:13:58.321Z,6.00
2018-03-21T02:16:25.824Z,5.07
2018-03-21T02:18:53.341Z,5.23
2018-03-21T02:21:21.361Z,5.33
2018-03-21T02:23:49.379Z,6.30
2018-03-21T02:26:16.964Z,5.87
2018-03-21T02:28:45.223Z,5.77
2018-03-21T02:31:12.761Z,5.70
2018-03-21T02:33:40.270Z,5.30
2018-03-21T02:36:07.805Z,5.97
2018-03-21T02:38:36.102Z,5.40
2018-03-21T02:41:04.455Z,5.00
2018-03-21T02:43:31.990Z,5.30
2018-03-21T02:45:59.519Z,4.50
2018-03-21T02:48:27.061Z,4.30
2018-03-21T02:50:54.569Z,2.93
2018-03-21T02:53:22.088Z,3.27
2018-03-21T02:55:49.605Z,3.30
2018-03-21T02:58:17.118Z,3.00
2018-03-21T03:00:44.626Z,3.50
2018-03-21T03:03:12.146Z,2.80
2018-03-21T03:05:39.661Z,3.20
2018-03-21T03:08:07.976Z,2.80
2018-03-21T03:10:35.521Z,2.63
2018-03-21T03:13:03.136Z,2.80
2018-03-21T03:15:30.665Z,2.87
2018-03-21T03:17:58.237Z,2.43
2018-03-21T03:20:26.597Z,2.67
2018-03-21T03:22:54.153Z,2.83
2018-03-21T03:25:21.680Z,3.37
2018-03-21T03:27:49.956Z,2.73
2018-03-21T03:30:19.044Z,2.83
2018-03-21T03:32:47.352Z,2.77
2018-03-21T03:35:14.866Z,2.43
2018-03-21T03:37:42.386Z,2.63
2018-03-21T03:40:09.889Z,2.30
2018-03-21T03:42:37.395Z,2.60
2018-03-21T03:45:04.980Z,2.60
2018-03-21T03:47:32.498Z,2.73
2018-03-21T03:50:00.530Z,2.63
2018-03-21T03:52:28.661Z,2.90
2018-03-21T03:54:56.181Z,2.40
2018-03-21T03:57:24.601Z,2.30
2018-03-21T03:59:52.115Z,2.47
2018-03-21T04:02:25.013Z,2.50
2018-03-21T04:04:53.399Z,2.83
2018-03-21T04:07:21.681Z,3.07
2018-03-21T04:09:49.213Z,3.40
2018-03-21T04:12:16.734Z,2.83
2018-03-21T04:14:44.910Z,3.60
2018-03-21T04:17:13.345Z,2.90
2018-03-21T04:19:41.649Z,2.80
2018-03-21T04:22:09.173Z,2.67
2018-03-21T04:24:38.036Z,2.77
2018-03-21T04:27:05.553Z,2.50
2018-03-21T04:29:33.094Z,2.70
2018-03-21T04:32:01.361Z,2.50
2018-03-21T04:34:29.671Z,2.47
2018-03-21T04:36:57.172Z,2.80
2018-03-21T04:39:24.696Z,2.50
2018-03-21T04:41:52.216Z,2.60
2018-03-21T04:44:20.484Z,2.43
2018-03-21T04:46:48.763Z,3.17
2018-03-21T04:49:17.041Z,2.63
2018-03-21T04:51:45.341Z,2.23
2018-03-21T04:54:12.876Z,2.20
2018-03-21T04:56:41.172Z,3.23
2018-03-21T04:59:08.688Z,2.60
2018-03-21T05:01:36.206Z,2.73
2018-03-21T05:04:03.837Z,2.43
2018-03-21T05:06:32.117Z,2.67
2018-03-21T05:09:00.468Z,2.50
2018-03-21T05:11:27.982Z,2.73
2018-03-21T05:13:55.514Z,2.90
2018-03-21T05:16:23.807Z,2.43
2018-03-21T05:18:52.104Z,2.70
2018-03-21T05:21:19.637Z,2.90
2018-03-21T05:23:47.916Z,2.70
2018-03-21T05:26:16.214Z,3.03
2018-03-21T05:28:43.744Z,2.37
2018-03-21T05:31:12.036Z,2.40
2018-03-21T05:33:39.712Z,2.80
2018-03-21T05:36:07.256Z,2.47
2018-03-21T05:38:35.543Z,3.23
2018-03-21T05:41:03.113Z,2.53
2018-03-21T05:43:30.747Z,2.43
2018-03-21T05:45:59.358Z,3.00
2018-03-21T05:48:26.889Z,2.60
2018-03-21T05:50:55.161Z,2.40
2018-03-21T05:53:24.154Z,2.83
2018-03-21T05:55:52.442Z,2.87
2018-03-21T05:58:20.992Z,2.30
2018-03-21T06:00:48.569Z,2.97
2018-03-21T06:03:16.912Z,2.73
2018-03-21T06:05:44.459Z,3.20
2018-03-21T06:08:12.000Z,4.77
2018-03-21T06:10:40.078Z,2.50
2018-03-21T06:13:07.640Z,2.50
2018-03-21T06:15:35.150Z,2.67
2018-03-21T06:18:02.739Z,2.50
2018-03-21T06:20:30.564Z,2.47
2018-03-21T06:22:58.089Z,2.53
2018-03-21T06:25:25.624Z,2.43
2018-03-21T06:27:53.910Z,2.53
2018-03-21T06:30:21.441Z,3.00
2018-03-21T06:32:53.584Z,2.00
2018-03-21T06:35:21.119Z,2.40
2018-03-21T06:37:50.121Z,2.30
2018-03-21T06:40:17.644Z,2.50
2018-03-21T06:42:45.160Z,2.93
2018-03-21T06:45:13.383Z,2.40
2018-03-21T06:47:40.901Z,2.73
2018-03-21T06:50:08.438Z,2.30
2018-03-21T06:52:36.414Z,2.80
2018-03-21T06:55:03.927Z,2.50
2018-03-21T06:57:32.260Z,2.50
2018-03-21T07:00:02.350Z,2.40
2018-03-21T07:02:30.426Z,2.43
2018-03-21T07:04:57.944Z,2.17
2018-03-21T07:07:29.398Z,2.20
2018-03-21T07:09:57.747Z,2.43
2018-03-21T07:12:25.270Z,2.57
2018-03-21T07:15:05.244Z,2.43
2018-03-21T07:17:33.208Z,2.60
2018-03-21T07:20:00.706Z,2.50
2018-03-21T07:22:28.993Z,2.47
2018-03-21T07:24:57.284Z,2.57
2018-03-21T07:27:25.080Z,2.67
2018-03-21T07:29:52.587Z,2.63
2018-03-21T07:32:20.877Z,2.57
2018-03-21T07:34:49.109Z,2.63
2018-03-21T07:37:16.940Z,2.93
2018-03-21T07:39:44.548Z,2.23
2018-03-21T07:42:12.468Z,2.67
2018-03-21T07:44:39.981Z,3.33
2018-03-21T07:47:08.069Z,2.70
2018-03-21T07:49:36.381Z,3.27
2018-03-21T07:52:03.893Z,3.37
2018-03-21T07:54:32.349Z,3.40
2018-03-21T08:06:50.231Z,3.37
2018-03-21T08:09:19.509Z,3.50
2018-03-21T08:11:47.054Z,3.90
2018-03-21T08:14:15.338Z,2.97
2018-03-21T08:16:42.873Z,3.53
2018-03-21T08:19:11.324Z,3.05
2018-03-21T08:21:43.397Z,3.53
2018-03-21T08:24:14.860Z,2.93
2018-03-21T08:26:42.367Z,3.50
2018-03-21T08:29:09.890Z,2.78
2018-03-21T08:31:37.404Z,2.70
2018-03-21T08:34:04.920Z,2.90
2018-03-21T08:36:33.603Z,2.97
2018-03-21T08:39:01.899Z,2.75
2018-03-21T08:41:33.973Z,2.72
2018-03-21T08:44:01.540Z,2.58
2018-03-21T08:46:33.055Z,2.87
2018-03-21T08:49:01.692Z,2.30
2018-03-21T08:51:29.232Z,2.37
2018-03-21T08:54:02.098Z,2.50
2018-03-21T08:56:31.078Z,2.00
2018-03-21T08:58:59.358Z,1.90
2018-03-21T09:01:30.300Z,3.03
2018-03-21T09:03:57.785Z,2.42
2018-03-21T09:06:25.387Z,2.30
2018-03-21T09:08:52.969Z,2.62
2018-03-21T09:11:21.863Z,2.50
2018-03-21T09:13:55.382Z,2.35
2018-03-21T09:16:23.690Z,2.17
2018-03-21T09:18:54.578Z,2.05
2018-03-21T09:21:22.085Z,2.15
2018-03-21T09:23:49.613Z,2.28
2018-03-21T09:26:17.885Z,2.20
2018-03-21T09:28:46.262Z,1.90
2018-03-21T09:31:14.541Z,2.33
2018-03-21T09:33:43.521Z,1.98
2018-03-21T09:36:11.533Z,1.83
2018-03-21T09:38:39.059Z,2.12
2018-03-21T09:41:07.338Z,2.12
2018-03-21T09:43:35.620Z,1.95
2018-03-21T09:46:03.910Z,1.80
2018-03-21T09:48:32.462Z,2.15
2018-03-21T09:50:59.979Z,2.05
2018-03-21T09:53:27.490Z,2.10
2018-03-21T09:55:56.434Z,1.90
2018-03-21T09:58:23.951Z,1.70
2018-03-21T10:00:52.229Z,2.03
2018-03-21T10:03:20.515Z,2.10
2018-03-21T10:05:48.458Z,1.98
2018-03-21T10:08:16.800Z,1.80
2018-03-21T10:10:44.327Z,1.73
2018-03-21T10:13:15.746Z,1.73
2018-03-21T10:15:43.246Z,1.50
2018-03-21T10:18:10.758Z,1.40
2018-03-21T10:20:38.286Z,1.60
2018-03-21T10:23:05.800Z,1.20
2018-03-21T10:25:35.924Z,1.70
2018-03-21T10:28:03.433Z,1.30
2018-03-21T10:30:31.909Z,1.40
2018-03-21T10:32:59.428Z,1.60
2018-03-21T10:35:31.508Z,1.50
2018-03-21T10:37:59.034Z,1.60
2018-03-21T10:40:27.310Z,1.60
2018-03-21T10:42:56.228Z,1.40
2018-03-21T10:45:23.737Z,1.58
2018-03-21T10:47:51.258Z,1.52
2018-03-21T10:50:18.760Z,1.40
2018-03-21T10:52:50.617Z,1.05
2018-03-21T10:55:18.134Z,1.52
2018-03-21T10:57:45.675Z,1.62
2018-03-21T11:00:13.206Z,1.90
2018-03-21T11:02:46.371Z,1.42
2018-03-21T11:05:13.880Z,1.70
2018-03-21T11:20:41.450Z,1.55
2018-03-21T11:23:08.961Z,1.27
2018-03-21T11:25:36.496Z,1.20
2018-03-21T11:28:04.006Z,1.00
2018-03-21T11:30:31.900Z,1.30
2018-03-21T11:32:59.403Z,1.50
2018-03-21T11:35:33.214Z,1.77
2018-03-21T11:38:01.474Z,1.73
2018-03-21T11:40:28.997Z,1.50
2018-03-21T11:42:56.534Z,1.67
2018-03-21T11:45:24.814Z,1.77
2018-03-21T11:47:53.131Z,1.80
2018-03-21T11:50:20.652Z,2.22
2018-03-21T11:52:48.489Z,1.92
2018-03-21T11:55:16.800Z,1.80
2018-03-21T11:57:44.996Z,2.00
2018-03-21T12:00:13.062Z,1.90
2018-03-21T12:02:40.575Z,1.80
2018-03-21T12:05:08.707Z,1.92
2018-03-21T12:07:36.350Z,1.90
2018-03-21T12:10:03.885Z,1.60
2018-03-21T12:12:32.213Z,1.67
2018-03-21T12:15:00.438Z,1.90
2018-03-21T12:17:28.738Z,1.10
2018-03-21T12:19:56.363Z,1.48
2018-03-21T12:22:23.957Z,1.40
2018-03-21T12:24:51.464Z,1.33
2018-03-21T12:27:19.049Z,1.30
2018-03-21T12:29:47.842Z,1.60
2018-03-21T12:32:17.103Z,1.85
2018-03-21T12:34:45.561Z,1.70
2018-03-21T12:37:13.094Z,1.30
2018-03-21T12:39:41.408Z,1.40
2018-03-21T12:42:08.939Z,1.40
2018-03-21T12:44:36.782Z,1.40
2018-03-21T12:47:04.278Z,1.12
2018-03-21T12:49:31.791Z,1.52
2018-03-21T12:51:59.805Z,1.60
2018-03-21T12:54:27.331Z,1.75
2018-03-21T12:56:55.124Z,1.60
2018-03-21T12:59:22.661Z,1.83
2018-03-21T13:01:52.066Z,1.73
2018-03-21T13:04:20.402Z,1.80
2018-03-21T13:06:48.393Z,2.30
2018-03-21T13:09:15.998Z,2.15
2018-03-21T13:11:44.764Z,2.57
2018-03-21T13:14:13.113Z,3.58
2018-03-21T13:16:40.923Z,3.30
2018-03-21T13:19:09.257Z,3.00
2018-03-21T13:21:36.802Z,3.00
2018-03-21T13:24:04.443Z,2.63
2018-03-21T13:26:31.978Z,3.00
2018-03-21T13:29:00.255Z,3.07
2018-03-21T13:31:28.554Z,4.20
2018-03-21T13:33:56.351Z,4.10
2018-03-21T13:36:23.910Z,3.80
2018-03-21T13:38:51.990Z,3.17
2018-03-21T13:41:19.511Z,3.73
2018-03-21T13:43:47.286Z,3.70
2018-03-21T13:46:14.817Z,4.30
2018-03-21T13:48:46.551Z,5.17
2018-03-21T13:51:14.064Z,5.50
2018-03-21T13:53:41.622Z,6.43
2018-03-21T13:56:09.162Z,6.97
2018-03-21T13:58:37.386Z,8.27
2018-03-21T14:01:04.944Z,8.30
2018-03-21T14:03:40.307Z,8.57
2018-03-21T14:06:07.840Z,9.83
2018-03-21T14:08:35.365Z,10.03
2018-03-21T14:11:02.896Z,10.53
2018-03-21T14:13:31.197Z,11.90
2018-03-21T14:15:58.962Z,11.47
2018-03-21T14:18:26.645Z,10.80
2018-03-21T14:20:54.228Z,10.90
2018-03-21T14:23:25.749Z,9.83
2018-03-21T14:25:54.135Z,9.13
2018-03-21T14:28:21.645Z,8.40
2018-03-21T14:30:53.818Z,8.00
2018-03-21T14:33:22.101Z,8.33
2018-03-21T14:35:50.441Z,7.90
2018-03-21T14:38:18.093Z,8.23
2018-03-21T14:40:46.536Z,8.53
2018-03-21T14:43:14.737Z,7.77
2018-03-21T14:45:42.282Z,7.77
2018-03-21T14:48:10.576Z,8.90
2018-03-21T14:50:51.606Z,7.10
2018-03-21T14:53:19.912Z,6.17
2018-03-21T14:55:51.536Z,7.43
2018-03-21T14:58:27.555Z,8.33
2018-03-21T15:00:55.767Z,7.97
2018-03-21T15:03:24.088Z,7.50
2018-03-21T15:05:51.608Z,8.03
2018-03-21T15:08:20.333Z,7.60
2018-03-21T15:10:48.314Z,8.47
2018-03-21T15:13:15.820Z,8.53
2018-03-21T15:15:43.359Z,6.80
2018-03-21T15:18:10.934Z,6.90
2018-03-21T15:20:38.465Z,6.80
2018-03-21T15:23:06.967Z,6.63
2018-03-21T15:25:34.527Z,6.47
2018-03-21T15:28:07.728Z,5.97
2018-03-21T15:30:36.032Z,7.13
2018-03-21T15:33:04.326Z,5.50
2018-03-21T15:35:31.850Z,5.20
2018-03-21T15:38:00.162Z,5.27
2018-03-21T15:40:27.667Z,5.10
2018-03-21T15:42:55.192Z,5.40
2018-03-21T15:45:22.716Z,5.40
2018-03-21T15:47:51.055Z,5.47
2018-03-21T15:50:18.693Z,6.73
2018-03-21T15:52:46.279Z,5.60
2018-03-21T15:55:13.907Z,6.53
2018-03-21T15:57:41.468Z,5.37
2018-03-21T16:00:09.090Z,6.00
2018-03-21T16:02:37.381Z,6.53
2018-03-21T16:05:05.697Z,6.37
2018-03-21T16:07:33.191Z,6.60
2018-03-21T16:10:00.712Z,6.87
2018-03-21T16:12:28.262Z,6.37
2018-03-21T16:14:56.849Z,6.67
2018-03-21T16:17:24.364Z,6.03
2018-03-21T16:32:51.946Z,6.32
2018-03-21T16:35:24.197Z,5.67
2018-03-21T16:37:52.614Z,5.37
2018-03-21T16:40:20.125Z,5.73
2018-03-21T16:42:49.037Z,5.90
2018-03-21T16:45:16.968Z,6.03
2018-03-21T16:47:44.509Z,6.30
2018-03-21T16:50:16.918Z,6.47
2018-03-21T16:52:49.218Z,6.53
2018-03-21T16:55:21.326Z,7.20
2018-03-21T16:57:54.503Z,6.87
2018-03-21T17:00:22.047Z,6.90
2018-03-21T17:02:50.280Z,7.23
2018-03-21T17:05:21.991Z,7.33
2018-03-21T17:07:49.502Z,7.10
2018-03-21T17:10:17.811Z,6.63
2018-03-21T17:12:46.218Z,7.20
2018-03-21T17:15:17.634Z,6.80
2018-03-21T17:17:45.210Z,7.53
2018-03-21T17:20:13.429Z,6.30
2018-03-21T17:22:40.944Z,7.30
2018-03-21T17:25:08.476Z,6.43
2018-03-21T17:27:40.531Z,7.13
2018-03-21T17:30:08.834Z,6.50
2018-03-21T17:32:36.361Z,11.30
2018-03-21T17:35:04.582Z,7.47
2018-03-21T17:37:36.168Z,7.67
2018-03-21T17:40:03.690Z,6.20
2018-03-21T17:42:31.242Z,7.10
2018-03-21T17:44:59.182Z,6.00
2018-03-21T17:47:27.724Z,6.47
2018-03-21T17:49:55.247Z,6.40
2018-03-21T17:52:23.005Z,6.70
2018-03-21T17:54:51.282Z,9.80
2018-03-21T17:57:23.254Z,9.07
2018-03-21T17:59:50.769Z,7.55
2018-03-21T18:02:18.283Z,6.93
2018-03-21T18:04:45.817Z,7.07
2018-03-21T18:07:14.101Z,7.83
2018-03-21T18:09:42.409Z,6.90
2018-03-21T18:12:09.913Z,7.37
2018-03-21T18:14:37.438Z,6.97
2018-03-21T18:17:04.952Z,6.97
2018-03-21T18:19:33.879Z,6.67
2018-03-21T18:22:01.826Z,6.70
2018-03-21T18:24:29.340Z,7.13
2018-03-21T18:27:02.903Z,7.13
2018-03-21T18:29:31.291Z,7.30
2018-03-21T18:31:58.823Z,7.63
2018-03-21T18:34:26.340Z,7.00
2018-03-21T18:36:53.880Z,6.93
2018-03-21T18:39:21.429Z,7.73
2018-03-21T18:41:48.985Z,7.57
2018-03-21T18:44:20.613Z,7.67
2018-03-21T18:46:52.847Z,7.63
2018-03-21T18:49:20.371Z,7.27
2018-03-21T18:51:47.882Z,7.70
2018-03-21T18:54:16.180Z,7.07
2018-03-21T18:56:44.419Z,7.17
2018-03-21T18:59:11.945Z,7.43
2018-03-21T19:01:39.460Z,7.63
2018-03-21T19:04:07.785Z,7.40
2018-03-21T19:06:35.342Z,7.80
2018-03-21T19:09:03.577Z,8.00
2018-03-21T19:11:32.294Z,7.57
2018-03-21T19:13:59.804Z,7.60
2018-03-21T19:16:27.351Z,7.20
2018-03-21T19:18:54.869Z,7.30
2018-03-21T19:21:22.383Z,7.13
2018-03-21T19:23:53.988Z,8.00
2018-03-21T19:26:21.765Z,7.97
2018-03-21T19:28:49.308Z,8.90
2018-03-21T19:31:16.813Z,9.07
2018-03-21T19:33:44.360Z,8.73
2018-03-21T19:36:12.208Z,8.30
2018-03-21T19:38:43.858Z,8.33
2018-03-21T19:41:11.381Z,8.10
2018-03-21T19:43:39.656Z,8.17
2018-03-21T19:46:07.994Z,7.50
2018-03-21T19:48:35.514Z,8.33
2018-03-21T19:51:03.050Z,8.57
2018-03-21T19:53:31.713Z,7.60
2018-03-21T19:55:59.306Z,7.40
2018-03-21T19:58:27.605Z,7.17
2018-03-21T20:00:55.138Z,6.87
2018-03-21T20:03:27.453Z,6.97
2018-03-21T20:05:55.882Z,7.27
2018-03-21T20:08:24.164Z,7.70
2018-03-21T20:10:52.483Z,7.40
2018-03-21T20:13:20.056Z,7.53
2018-03-21T20:15:51.416Z,7.83
2018-03-21T20:18:18.931Z,7.17
2018-03-21T20:20:46.658Z,8.17
2018-03-21T20:23:16.320Z,6.70
2018-03-21T20:25:44.533Z,6.37
2018-03-21T20:28:12.328Z,6.47
2018-03-21T20:30:40.652Z,6.73
2018-03-21T20:33:08.706Z,7.20
2018-03-21T20:35:36.235Z,5.77
2018-03-21T20:38:04.897Z,6.13
2018-03-21T20:40:33.257Z,6.67
2018-03-21T20:43:04.963Z,6.27
2018-03-21T20:45:33.259Z,7.27
2018-03-21T20:48:00.800Z,6.67
2018-03-21T20:50:29.100Z,6.90
2018-03-21T20:52:56.619Z,7.10
2018-03-21T20:55:24.912Z,7.20
2018-03-21T20:57:53.199Z,6.77
2018-03-21T21:00:20.735Z,6.90
2018-03-21T21:15:49.503Z,6.83
2018-03-21T21:18:17.598Z,7.60
2018-03-21T21:20:46.717Z,7.90
2018-03-21T21:23:14.309Z,8.77
2018-03-21T21:25:41.939Z,9.27
2018-03-21T21:28:09.866Z,8.63
2018-03-21T21:30:42.198Z,9.77
2018-03-21T21:33:09.766Z,10.20
2018-03-21T21:35:42.297Z,10.30
2018-03-21T21:38:10.669Z,10.60
2018-03-21T21:40:41.990Z,11.80
2018-03-21T21:43:09.521Z,12.10
2018-03-21T21:45:38.263Z,13.17
2018-03-21T21:48:10.520Z,13.97
2018-03-21T21:50:38.062Z,14.80
2018-03-21T21:53:05.578Z,15.60
2018-03-21T21:55:33.960Z,17.10
2018-03-21T21:58:02.247Z,17.10
2018-03-21T22:00:29.763Z,17.20
2018-03-21T22:02:58.065Z,18.80
2018-03-21T22:05:30.446Z,17.27
2018-03-21T22:07:58.334Z,19.57
2018-03-21T22:10:26.713Z,20.13
2018-03-21T22:12:54.234Z,20.50
2018-03-21T22:15:22.506Z,21.43
2018-03-21T22:17:51.599Z,21.47
2018-03-21T22:20:19.879Z,21.57
2018-03-21T22:22:48.255Z,20.60
2018-03-21T22:25:16.533Z,22.17
2018-03-21T22:27:44.922Z,22.40
2018-03-21T22:30:13.197Z,23.03
2018-03-21T22:32:41.714Z,22.07
2018-03-21T22:35:09.293Z,23.03
2018-03-21T22:37:36.825Z,22.43
2018-03-21T22:40:04.353Z,22.70
2018-03-21T22:42:33.425Z,23.77
2018-03-21T22:45:00.975Z,25.90
2018-03-21T22:47:32.465Z,23.50
2018-03-21T22:50:00.972Z,23.67
2018-03-21T22:52:32.433Z,22.70
2018-03-21T22:55:00.811Z,22.80
2018-03-21T22:57:32.743Z,22.30
2018-03-21T23:00:00.928Z,23.20
2018-03-21T23:02:29.036Z,21.93
2018-03-21T23:05:00.656Z,24.80
2018-03-21T23:07:28.192Z,24.70
2018-03-21T23:09:56.472Z,23.63
2018-03-21T23:12:25.088Z,23.87
2018-03-21T23:14:53.360Z,32.13
2018-03-21T23:17:20.910Z,24.63
2018-03-21T23:19:49.214Z,23.87
2018-03-21T23:22:17.083Z,24.57
2018-03-21T23:24:45.154Z,25.10
2018-03-21T23:27:14.047Z,25.43
2018-03-21T23:29:45.644Z,25.17
2018-03-21T23:32:14.421Z,24.50
2018-03-21T23:34:43.589Z,24.93
2018-03-21T23:37:11.489Z,24.50
2018-03-21T23:39:39.428Z,25.93
2018-03-21T23:42:07.277Z,24.00
2018-03-21T23:44:34.819Z,26.03
